Terminal Aerodrome Forecast
Issued by NWS Charleston, WV

Current Version | Previous Version | Graphics & Text | Print | Product List | Glossary On
Versions: 1 2 3 4 5 6 7 8 9 10 11 12 13 14 15 16 17 18 19 20 21 22 23 24 25
395
FTUS41 KRLX 170301 AAA
TAFCRW
TAF AMD
KCRW 170301Z 1703/1724 00000KT 6SM BR OVC090
     FM170900 16005KT 2SM -SHRA OVC035
     FM171100 17005KT 4SM -SHRA OVC022
     FM171200 18006KT 3SM -SHRA OVC009
     FM171700 21009G17KT 4SM -SHRA OVC016
     FM172300 24008KT P6SM OVC021=

USA.gov is the U.S. government's official web portal to all federal, state and local government web resources and services.